Gulf Pearl — C6UK9 — position and weather

sailwx.info

Track history (hours):
 
Tides and Currents Weather Stations Pressure Air Temp Water Temp Dewpoint Dewpoint Depression Visibility Wind Speed Wind Dir Waves Ship Positions

Gulf Pearl

Last reported at 2017-Nov-14 14:16 UTC. Time now 2017-Nov-21 20:52 UTC.
Position N 24°54' W 114°50'.

Length 228 m; draft 8.1 m.

Type: Tanker. MMSI: 311943000.

Date/timePositionNaut miles runAvg speedWind from/ knotsBaromVisibWave heightAir tempDewpointWater temp
2017-Nov-14 14:16N 24°54' W 114°50'312.3
2017-Nov-14 14:00N 24°57' W 114°52'612.3
2017-Nov-14 13:31N 25°01' W 114°57'612.3
2017-Nov-14 13:00N 25°05' W 115°02'1212.5
2017-Nov-14 12:02N 25°13' W 115°12'012.0
2017-Nov-14 12:00N 25°14' W 115°12'2113.1
2017-Nov-14 10:24N 25°28' W 115°29'513.1
2017-Nov-14 10:00N 25°31' W 115°34'2813.3
2017-Nov-14 07:54N 25°50' W 115°57'513.6
2017-Nov-14 07:30N 25°54' W 116°01'5313.4
2017-Nov-14 03:31N 26°31' W 116°43'013.0
2017-Nov-14 03:30N 26°32' W 116°43'713.4
2017-Nov-14 03:00N 26°38' W 116°44'713.6
2017-Nov-14 02:30N 26°45' W 116°45'2913.7
2017-Nov-14 00:25N 27°13' W 116°50'613.4
2017-Nov-14 00:00N 27°19' W 116°51'1013.6
2017-Nov-13 23:18N 27°28' W 116°53'413.5
2017-Nov-13 23:00N 27°32' W 116°54'913.4
2017-Nov-13 22:19N 27°41' W 116°55'413.3
2017-Nov-13 22:00N 27°45' W 116°56'25912.8
2017-Nov-13 01:41N 32°02' W 117°40'711.0
2017-Nov-13 01:00N 32°09' W 117°41'612.8
2017-Nov-13 00:30N 32°15' W 117°43'5 9.6
2017-Nov-13 00:00N 32°20' W 117°44'5 9.5
2017-Nov-12 23:30N 32°24' W 117°46'510.1
2017-Nov-12 22:58N 32°30' W 117°48'612.6
2017-Nov-12 22:30N 32°35' W 117°50'612.6
2017-Nov-12 22:00N 32°41' W 117°52'612.9
2017-Nov-12 21:30N 32°47' W 117°54'612.8
2017-Nov-12 21:00N 32°53' W 117°57'713.1
2017-Nov-12 20:30N 32°60' W 117°59'612.9
2017-Nov-12 20:00N 33°06' W 118°02'612.9
2017-Nov-12 19:30N 33°12' W 118°04'612.8
2017-Nov-12 19:00N 33°18' W 118°06'712.1
2017-Nov-12 18:23N 33°25' W 118°09'513.4
2017-Nov-12 18:00N 33°30' W 118°11'711.5
2017-Nov-12 17:25N 33°36' W 118°15'511.9
2017-Nov-12 17:00N 33°36' W 118°21'713.2
2017-Nov-12 16:30N 33°39' W 118°28'612.2
2017-Nov-12 16:00N 33°43' W 118°33'612.8
2017-Nov-12 15:30N 33°50' W 118°31'611.0
2017-Nov-12 14:59N 33°55' W 118°29'1 1.7
2017-Nov-12 14:18N 33°55' W 118°27'0 0.1
2017-Nov-12 13:57N 33°55' W 118°27'  
2017-Nov-09 17:29N 33°55' W 118°27'0 0.4
2017-Nov-09 16:47N 33°55' W 118°27'2 2.9
2017-Nov-09 15:57N 33°54' W 118°30'0 0.8
2017-Nov-09 15:24N 33°54' W 118°30'0 0.4
2017-Nov-09 15:00N 33°54' W 118°30'0 0.1
2017-Nov-09 11:07N 33°54' W 118°29'0 0.1
2017-Nov-09 10:45N 33°54' W 118°29'0 0.2
2017-Nov-09 10:30N 33°54' W 118°29'0 0.1
2017-Nov-09 09:48N 33°54' W 118°29'0 0.2
2017-Nov-09 09:30N 33°54' W 118°29'0 0.0
2017-Nov-09 09:01N 33°54' W 118°29'0 0.0
2017-Nov-09 08:30N 33°54' W 118°29'0 0.0
2017-Nov-09 07:57N 33°54' W 118°29'0 0.2
2017-Nov-09 07:17N 33°54' W 118°29'1 2.7
2017-Nov-09 06:59N 33°53' W 118°30'4 9.3
2017-Nov-09 06:30N 33°49' W 118°30'611.6
2017-Nov-09 06:00N 33°43' W 118°31'612.0
2017-Nov-09 05:30N 33°40' W 118°24'611.2
2017-Nov-09 04:57N 33°38' W 118°17'511.4
2017-Nov-09 04:30N 33°36' W 118°12'611.0
2017-Nov-09 04:00N 33°32' W 118°08'612.3
2017-Nov-09 03:31N 33°26' W 118°06'612.0
2017-Nov-09 03:00N 33°20' W 118°03'612.3
2017-Nov-09 02:31N 33°15' W 118°00'612.7
2017-Nov-09 02:00N 33°09' W 117°57'612.2
2017-Nov-09 01:30N 33°03' W 117°55'4 8.5
2017-Nov-09 01:01N 32°59' W 117°57'510.4
2017-Nov-09 00:30N 32°54' W 117°60'611.4
2017-Nov-09 00:00N 32°49' W 118°02'611.2
2017-Nov-08 23:30N 32°44' W 118°05'611.2
2017-Nov-08 23:00N 32°38' W 118°07'510.8
2017-Nov-08 22:31N 32°33' W 118°10'510.9
2017-Nov-08 22:01N 32°28' W 118°12'0 0.3
2017-Nov-08 20:34N 32°28' W 118°12'0 0.7
2017-Nov-08 20:28N 32°28' W 118°12'0 0.6
2017-Nov-08 19:57N 32°28' W 118°12'1 0.6
2017-Nov-08 19:07N 32°29' W 118°12'1 0.6
2017-Nov-08 17:05N 32°30' W 118°12'0 0.8
2017-Nov-08 17:00N 32°30' W 118°12'0 0.6
2017-Nov-08 16:31N 32°30' W 118°11'0 0.7
2017-Nov-08 16:01N 32°31' W 118°11'0 1.0
2017-Nov-08 15:30N 32°31' W 118°11'0 0.6
2017-Nov-08 14:46N 32°31' W 118°10'0 0.6
2017-Nov-08 14:30N 32°32' W 118°10'0 0.8
2017-Nov-08 13:55N 32°32' W 118°10'0 0.7
2017-Nov-08 13:31N 32°32' W 118°10'1 0.8
2017-Nov-08 12:43N 32°33' W 118°09'0 0.9
2017-Nov-08 12:29N 32°33' W 118°09'1 1.1
2017-Nov-08 12:01N 32°33' W 118°09'1 1.1
2017-Nov-08 11:31N 32°33' W 118°08'1 1.0
2017-Nov-08 11:01N 32°34' W 118°08'1 0.9
2017-Nov-08 10:27N 32°34' W 118°08'0 0.9
2017-Nov-08 09:57N 32°35' W 118°07'0 0.9
2017-Nov-08 09:28N 32°35' W 118°07'0 0.8
2017-Nov-08 09:00N 32°35' W 118°07'0 0.7
2017-Nov-08 08:30N 32°36' W 118°07'0 0.7
2017-Nov-08 08:00N 32°36' W 118°06'0 0.4
2017-Nov-08 07:30N 32°36' W 118°06'1 0.8
2017-Nov-08 06:46N 32°36' W 118°06'6 7.0
2017-Nov-08 05:52N 32°38' W 117°58'0 0.3
2017-Nov-08 05:30N 32°38' W 117°59'0 0.7
2017-Nov-08 05:00N 32°38' W 117°59'0 0.8
2017-Nov-08 04:30N 32°37' W 117°59'0 0.8
2017-Nov-08 04:00N 32°37' W 117°59'0 0.7
2017-Nov-08 03:30N 32°37' W 117°59'0 0.6
2017-Nov-08 03:01N 32°36' W 117°59'0 0.4
2017-Nov-08 02:31N 32°36' W 117°59'0 0.4
2017-Nov-08 02:01N 32°36' W 117°59'0 0.4
2017-Nov-08 01:30N 32°36' W 117°59'0 0.3
2017-Nov-08 01:01N 32°36' W 117°59'0 0.1
2017-Nov-08 00:31N 32°36' W 117°59'0 0.2
2017-Nov-08 00:00N 32°36' W 117°59'0 0.1
2017-Nov-07 23:30N 32°36' W 117°59'0 0.1
2017-Nov-07 23:01N 32°36' W 117°59'0 0.3
2017-Nov-07 22:31N 32°36' W 117°59'0 0.3
2017-Nov-07 22:01N 32°36' W 117°59'0 0.5
2017-Nov-07 21:31N 32°36' W 117°59'0 0.3
2017-Nov-07 21:01N 32°36' W 117°59'0 0.3
2017-Nov-07 20:31N 32°37' W 117°59'0 0.3
2017-Nov-07 20:00N 32°37' W 117°60'0 0.2
2017-Nov-07 19:30N 32°37' W 117°60'0 0.1
2017-Nov-07 19:00N 32°37' W 117°60'0 0.2
2017-Nov-07 18:30N 32°37' W 117°60'0 0.1
2017-Nov-07 18:01N 32°37' W 117°60'0 0.2
2017-Nov-07 17:30N 32°37' W 118°00'0 0.3
2017-Nov-07 17:01N 32°37' W 118°00'0 0.4
2017-Nov-07 16:31N 32°36' W 118°00'0 0.2
2017-Nov-07 16:00N 32°36' W 118°00'0 0.2
2017-Nov-07 15:30N 32°36' W 118°00'0 0.4
2017-Nov-07 15:01N 32°36' W 118°01'0 0.2
2017-Nov-07 14:31N 32°36' W 118°01'0 0.3
2017-Nov-07 14:01N 32°36' W 118°01'0 0.3
2017-Nov-07 13:30N 32°36' W 118°01'0 0.1
2017-Nov-07 13:00N 32°36' W 118°01'0 0.1
2017-Nov-07 12:25N 32°36' W 118°01'0 0.0
2017-Nov-07 12:01N 32°36' W 118°01'0 0.1
2017-Nov-07 11:30N 32°36' W 118°01'0 0.3
2017-Nov-07 11:01N 32°36' W 118°01'0 0.3
2017-Nov-07 10:31N 32°36' W 118°01'0 0.4
2017-Nov-07 09:59N 32°36' W 118°01'0 0.5
2017-Nov-07 09:27N 32°37' W 118°01'0 0.6
2017-Nov-07 09:00N 32°37' W 118°01'0 0.7
2017-Nov-07 08:31N 32°37' W 118°01'0 0.4
2017-Nov-07 08:00N 32°37' W 118°02'0 0.5
2017-Nov-07 07:31N 32°37' W 118°02'0 0.4
2017-Nov-07 06:56N 32°38' W 118°02'0 0.5
2017-Nov-07 06:30N 32°38' W 118°02'0 0.3
2017-Nov-07 06:01N 32°38' W 118°03'0 0.3
2017-Nov-07 05:31N 32°38' W 118°03'0 0.3
2017-Nov-07 05:01N 32°37' W 118°03'0 0.3
2017-Nov-07 04:30N 32°37' W 118°03'0 0.4
2017-Nov-07 04:01N 32°37' W 118°03'0 0.3
2017-Nov-07 03:30N 32°37' W 118°03'0 0.4
2017-Nov-07 03:01N 32°37' W 118°04'0 0.3
2017-Nov-07 02:30N 32°37' W 118°04'0 0.3
2017-Nov-07 02:01N 32°38' W 118°04'0 0.4
2017-Nov-07 01:31N 32°38' W 118°04'0 0.4
2017-Nov-07 01:01N 32°38' W 118°04'0 0.2
2017-Nov-07 00:31N 32°38' W 118°04'0 0.3
2017-Nov-07 00:00N 32°38' W 118°04'0 0.4
2017-Nov-06 23:30N 32°38' W 118°04'1 2.4
2017-Nov-06 23:00N 32°37' W 118°05'510.5
2017-Nov-06 22:31N 32°32' W 118°04'3 5.9
2017-Nov-06 21:59N 32°29' W 118°04'0 0.6
2017-Nov-06 21:30N 32°29' W 118°05'0 0.7
2017-Nov-06 21:00N 32°29' W 118°05'0 0.7
2017-Nov-06 20:30N 32°28' W 118°06'65 3.4
2017-Nov-06 01:28N 33°33' W 118°13'1810.9
2017-Nov-05 23:47N 33°42' W 118°32'311.0
2017-Nov-05 23:30N 33°45' W 118°33'611.9
2017-Nov-05 23:00N 33°50' W 118°31'4 8.4
2017-Nov-05 22:29N 33°54' W 118°28'1 0.0
2017-Nov-04 19:06N 33°54' W 118°27'0 0.0
2017-Nov-04 18:51N 33°54' W 118°27'0 0.0
2017-Nov-04 18:27N 33°54' W 118°27'0 0.0
2017-Nov-04 18:00N 33°54' W 118°27'0 0.7
2017-Nov-04 17:22N 33°54' W 118°27'2 3.1
2017-Nov-04 16:45N 33°53' W 118°29'  
Track history (hours):
 
Tides and Currents Weather Stations Pressure Air Temp Water Temp Dewpoint Dewpoint Depression Visibility Wind Speed Wind Dir Waves Ship Positions

Gulf Pearl

Last reported at 2017-Nov-14 14:16 UTC. Time now 2017-Nov-21 20:52 UTC.
Position N 24°54' W 114°50'.

Length 228 m; draft 8.1 m.

Type: Tanker. MMSI: 311943000.

Date/timePositionNaut miles runAvg speedWind from/ knotsBaromVisibWave heightAir tempDewpointWater temp
2017-Nov-14 14:16N 24°54' W 114°50'312.3
2017-Nov-14 14:00N 24°57' W 114°52'612.3
2017-Nov-14 13:31N 25°01' W 114°57'612.3
2017-Nov-14 13:00N 25°05' W 115°02'1212.5
2017-Nov-14 12:02N 25°13' W 115°12'012.0
2017-Nov-14 12:00N 25°14' W 115°12'2113.1
2017-Nov-14 10:24N 25°28' W 115°29'513.1
2017-Nov-14 10:00N 25°31' W 115°34'2813.3
2017-Nov-14 07:54N 25°50' W 115°57'513.6
2017-Nov-14 07:30N 25°54' W 116°01'5313.4
2017-Nov-14 03:31N 26°31' W 116°43'013.0
2017-Nov-14 03:30N 26°32' W 116°43'713.4
2017-Nov-14 03:00N 26°38' W 116°44'713.6
2017-Nov-14 02:30N 26°45' W 116°45'2913.7
2017-Nov-14 00:25N 27°13' W 116°50'613.4
2017-Nov-14 00:00N 27°19' W 116°51'1013.6
2017-Nov-13 23:18N 27°28' W 116°53'413.5
2017-Nov-13 23:00N 27°32' W 116°54'913.4
2017-Nov-13 22:19N 27°41' W 116°55'413.3
2017-Nov-13 22:00N 27°45' W 116°56'25912.8
2017-Nov-13 01:41N 32°02' W 117°40'711.0
2017-Nov-13 01:00N 32°09' W 117°41'612.8
2017-Nov-13 00:30N 32°15' W 117°43'5 9.6
2017-Nov-13 00:00N 32°20' W 117°44'5 9.5
2017-Nov-12 23:30N 32°24' W 117°46'510.1
2017-Nov-12 22:58N 32°30' W 117°48'612.6
2017-Nov-12 22:30N 32°35' W 117°50'612.6
2017-Nov-12 22:00N 32°41' W 117°52'612.9
2017-Nov-12 21:30N 32°47' W 117°54'612.8
2017-Nov-12 21:00N 32°53' W 117°57'713.1
2017-Nov-12 20:30N 32°60' W 117°59'612.9
2017-Nov-12 20:00N 33°06' W 118°02'612.9
2017-Nov-12 19:30N 33°12' W 118°04'612.8
2017-Nov-12 19:00N 33°18' W 118°06'712.1
2017-Nov-12 18:23N 33°25' W 118°09'513.4
2017-Nov-12 18:00N 33°30' W 118°11'711.5
2017-Nov-12 17:25N 33°36' W 118°15'511.9
2017-Nov-12 17:00N 33°36' W 118°21'713.2
2017-Nov-12 16:30N 33°39' W 118°28'612.2
2017-Nov-12 16:00N 33°43' W 118°33'612.8
2017-Nov-12 15:30N 33°50' W 118°31'611.0
2017-Nov-12 14:59N 33°55' W 118°29'1 1.7
2017-Nov-12 14:18N 33°55' W 118°27'0 0.1
2017-Nov-12 13:57N 33°55' W 118°27'  
2017-Nov-09 17:29N 33°55' W 118°27'0 0.4
2017-Nov-09 16:47N 33°55' W 118°27'2 2.9
2017-Nov-09 15:57N 33°54' W 118°30'0 0.8
2017-Nov-09 15:24N 33°54' W 118°30'0 0.4
2017-Nov-09 15:00N 33°54' W 118°30'0 0.1
2017-Nov-09 11:07N 33°54' W 118°29'0 0.1
2017-Nov-09 10:45N 33°54' W 118°29'0 0.2
2017-Nov-09 10:30N 33°54' W 118°29'0 0.1
2017-Nov-09 09:48N 33°54' W 118°29'0 0.2
2017-Nov-09 09:30N 33°54' W 118°29'0 0.0
2017-Nov-09 09:01N 33°54' W 118°29'0 0.0
2017-Nov-09 08:30N 33°54' W 118°29'0 0.0
2017-Nov-09 07:57N 33°54' W 118°29'0 0.2
2017-Nov-09 07:17N 33°54' W 118°29'1 2.7
2017-Nov-09 06:59N 33°53' W 118°30'4 9.3
2017-Nov-09 06:30N 33°49' W 118°30'611.6
2017-Nov-09 06:00N 33°43' W 118°31'612.0
2017-Nov-09 05:30N 33°40' W 118°24'611.2
2017-Nov-09 04:57N 33°38' W 118°17'511.4
2017-Nov-09 04:30N 33°36' W 118°12'611.0
2017-Nov-09 04:00N 33°32' W 118°08'612.3
2017-Nov-09 03:31N 33°26' W 118°06'612.0
2017-Nov-09 03:00N 33°20' W 118°03'612.3
2017-Nov-09 02:31N 33°15' W 118°00'612.7
2017-Nov-09 02:00N 33°09' W 117°57'612.2
2017-Nov-09 01:30N 33°03' W 117°55'4 8.5
2017-Nov-09 01:01N 32°59' W 117°57'510.4
2017-Nov-09 00:30N 32°54' W 117°60'611.4
2017-Nov-09 00:00N 32°49' W 118°02'611.2
2017-Nov-08 23:30N 32°44' W 118°05'611.2
2017-Nov-08 23:00N 32°38' W 118°07'510.8
2017-Nov-08 22:31N 32°33' W 118°10'510.9
2017-Nov-08 22:01N 32°28' W 118°12'0 0.3
2017-Nov-08 20:34N 32°28' W 118°12'0 0.7
2017-Nov-08 20:28N 32°28' W 118°12'0 0.6
2017-Nov-08 19:57N 32°28' W 118°12'1 0.6
2017-Nov-08 19:07N 32°29' W 118°12'1 0.6
2017-Nov-08 17:05N 32°30' W 118°12'0 0.8
2017-Nov-08 17:00N 32°30' W 118°12'0 0.6
2017-Nov-08 16:31N 32°30' W 118°11'0 0.7
2017-Nov-08 16:01N 32°31' W 118°11'0 1.0
2017-Nov-08 15:30N 32°31' W 118°11'0 0.6
2017-Nov-08 14:46N 32°31' W 118°10'0 0.6
2017-Nov-08 14:30N 32°32' W 118°10'0 0.8
2017-Nov-08 13:55N 32°32' W 118°10'0 0.7
2017-Nov-08 13:31N 32°32' W 118°10'1 0.8
2017-Nov-08 12:43N 32°33' W 118°09'0 0.9
2017-Nov-08 12:29N 32°33' W 118°09'1 1.1
2017-Nov-08 12:01N 32°33' W 118°09'1 1.1
2017-Nov-08 11:31N 32°33' W 118°08'1 1.0
2017-Nov-08 11:01N 32°34' W 118°08'1 0.9
2017-Nov-08 10:27N 32°34' W 118°08'0 0.9
2017-Nov-08 09:57N 32°35' W 118°07'0 0.9
2017-Nov-08 09:28N 32°35' W 118°07'0 0.8
2017-Nov-08 09:00N 32°35' W 118°07'0 0.7
2017-Nov-08 08:30N 32°36' W 118°07'0 0.7
2017-Nov-08 08:00N 32°36' W 118°06'0 0.4
2017-Nov-08 07:30N 32°36' W 118°06'1 0.8
2017-Nov-08 06:46N 32°36' W 118°06'6 7.0
2017-Nov-08 05:52N 32°38' W 117°58'0 0.3
2017-Nov-08 05:30N 32°38' W 117°59'0 0.7
2017-Nov-08 05:00N 32°38' W 117°59'0 0.8
2017-Nov-08 04:30N 32°37' W 117°59'0 0.8
2017-Nov-08 04:00N 32°37' W 117°59'0 0.7
2017-Nov-08 03:30N 32°37' W 117°59'0 0.6
2017-Nov-08 03:01N 32°36' W 117°59'0 0.4
2017-Nov-08 02:31N 32°36' W 117°59'0 0.4
2017-Nov-08 02:01N 32°36' W 117°59'0 0.4
2017-Nov-08 01:30N 32°36' W 117°59'0 0.3
2017-Nov-08 01:01N 32°36' W 117°59'0 0.1
2017-Nov-08 00:31N 32°36' W 117°59'0 0.2
2017-Nov-08 00:00N 32°36' W 117°59'0 0.1
2017-Nov-07 23:30N 32°36' W 117°59'0 0.1
2017-Nov-07 23:01N 32°36' W 117°59'0 0.3
2017-Nov-07 22:31N 32°36' W 117°59'0 0.3
2017-Nov-07 22:01N 32°36' W 117°59'0 0.5
2017-Nov-07 21:31N 32°36' W 117°59'0 0.3
2017-Nov-07 21:01N 32°36' W 117°59'0 0.3
2017-Nov-07 20:31N 32°37' W 117°59'0 0.3
2017-Nov-07 20:00N 32°37' W 117°60'0 0.2
2017-Nov-07 19:30N 32°37' W 117°60'0 0.1
2017-Nov-07 19:00N 32°37' W 117°60'0 0.2
2017-Nov-07 18:30N 32°37' W 117°60'0 0.1
2017-Nov-07 18:01N 32°37' W 117°60'0 0.2
2017-Nov-07 17:30N 32°37' W 118°00'0 0.3
2017-Nov-07 17:01N 32°37' W 118°00'0 0.4
2017-Nov-07 16:31N 32°36' W 118°00'0 0.2
2017-Nov-07 16:00N 32°36' W 118°00'0 0.2
2017-Nov-07 15:30N 32°36' W 118°00'0 0.4
2017-Nov-07 15:01N 32°36' W 118°01'0 0.2
2017-Nov-07 14:31N 32°36' W 118°01'0 0.3
2017-Nov-07 14:01N 32°36' W 118°01'0 0.3
2017-Nov-07 13:30N 32°36' W 118°01'0 0.1
2017-Nov-07 13:00N 32°36' W 118°01'0 0.1
2017-Nov-07 12:25N 32°36' W 118°01'0 0.0
2017-Nov-07 12:01N 32°36' W 118°01'0 0.1
2017-Nov-07 11:30N 32°36' W 118°01'0 0.3
2017-Nov-07 11:01N 32°36' W 118°01'0 0.3
2017-Nov-07 10:31N 32°36' W 118°01'0 0.4
2017-Nov-07 09:59N 32°36' W 118°01'0 0.5
2017-Nov-07 09:27N 32°37' W 118°01'0 0.6
2017-Nov-07 09:00N 32°37' W 118°01'0 0.7
2017-Nov-07 08:31N 32°37' W 118°01'0 0.4
2017-Nov-07 08:00N 32°37' W 118°02'0 0.5
2017-Nov-07 07:31N 32°37' W 118°02'0 0.4
2017-Nov-07 06:56N 32°38' W 118°02'0 0.5
2017-Nov-07 06:30N 32°38' W 118°02'0 0.3
2017-Nov-07 06:01N 32°38' W 118°03'0 0.3
2017-Nov-07 05:31N 32°38' W 118°03'0 0.3
2017-Nov-07 05:01N 32°37' W 118°03'0 0.3
2017-Nov-07 04:30N 32°37' W 118°03'0 0.4
2017-Nov-07 04:01N 32°37' W 118°03'0 0.3
2017-Nov-07 03:30N 32°37' W 118°03'0 0.4
2017-Nov-07 03:01N 32°37' W 118°04'0 0.3
2017-Nov-07 02:30N 32°37' W 118°04'0 0.3
2017-Nov-07 02:01N 32°38' W 118°04'0 0.4
2017-Nov-07 01:31N 32°38' W 118°04'0 0.4
2017-Nov-07 01:01N 32°38' W 118°04'0 0.2
2017-Nov-07 00:31N 32°38' W 118°04'0 0.3
2017-Nov-07 00:00N 32°38' W 118°04'0 0.4
2017-Nov-06 23:30N 32°38' W 118°04'1 2.4
2017-Nov-06 23:00N 32°37' W 118°05'510.5
2017-Nov-06 22:31N 32°32' W 118°04'3 5.9
2017-Nov-06 21:59N 32°29' W 118°04'0 0.6
2017-Nov-06 21:30N 32°29' W 118°05'0 0.7
2017-Nov-06 21:00N 32°29' W 118°05'0 0.7
2017-Nov-06 20:30N 32°28' W 118°06'65 3.4
2017-Nov-06 01:28N 33°33' W 118°13'1810.9
2017-Nov-05 23:47N 33°42' W 118°32'311.0
2017-Nov-05 23:30N 33°45' W 118°33'611.9
2017-Nov-05 23:00N 33°50' W 118°31'4 8.4
2017-Nov-05 22:29N 33°54' W 118°28'1 0.0
2017-Nov-04 19:06N 33°54' W 118°27'0 0.0
2017-Nov-04 18:51N 33°54' W 118°27'0 0.0
2017-Nov-04 18:27N 33°54' W 118°27'0 0.0
2017-Nov-04 18:00N 33°54' W 118°27'0 0.7
2017-Nov-04 17:22N 33°54' W 118°27'2 3.1
2017-Nov-04 16:45N 33°53' W 118°29'  

Dump ship's entire track history